Time;durP1;ratioP1;P1;durP2;ratioP2;P2;SDS_P1;SDS_P2;PMS_P1;PMS_P2;Temp;Humidity;BMP_temperature;BMP_pressure;BME280_temperature;BME280_humidity;BME280_pressure;Samples;Min_cycle;Max_cycle;Signal;HPM_P1;HPM_P2
2021/12/04 00:01:15;;;;;;;;;;;;;;;7.05;97.43;99250.75;4974429;28;869;-58
2021/12/04 00:03:41;;;;;;;;;;;;;;;7.03;96.86;99250.38;4974315;28;958;-58
2021/12/04 00:06:15;;;;;;;;;;;;;;;6.94;97.20;99232.31;4974441;28;1501;-58
2021/12/04 00:08:44;;;;;;;;;;;;;;;6.89;96.52;99226.41;4974286;28;1907;-58
2021/12/04 00:50:36;;;;;;;;;;;;;;;6.50;96.27;99213.41;4993113;28;647;-60
2021/12/04 00:53:03;;;;;;;;;;;;;;;6.45;96.54;99208.31;4993036;28;867;-60
2021/12/04 00:55:30;;;;;;;;;;;;;;;6.44;97.20;99204.75;4993251;28;871;-60
2021/12/04 00:57:56;;;;;;;;;;;;;;;6.42;96.78;99198.91;4992935;28;1011;-60
2021/12/04 01:00:23;;;;;;;;;;;;;;;6.38;96.87;99195.34;4992945;28;840;-60
2021/12/04 01:02:50;;;;;;;;;;;;;;;6.36;96.01;99191.41;4992774;28;816;-59
2021/12/04 01:05:17;;;;;;;;;;;;;;;6.33;96.75;99196.50;4993079;28;879;-59
2021/12/04 01:07:43;;;;;;;;;;;;;;;6.32;96.39;99180.44;4992663;28;1959;-59
2021/12/04 01:10:10;;;;;;;;;;;;;;;6.29;96.19;99184.75;4992694;28;883;-60
2021/12/04 01:12:37;;;;;;;;;;;;;;;6.27;97.53;99178.06;4992777;28;855;-60
2021/12/04 01:15:04;;;;;;;;;;;;;;;6.25;97.03;99175.72;4992755;28;836;-59
2021/12/04 01:17:31;;;;;;;;;;;;;;;6.24;97.01;99160.41;4992326;28;899;-59
2021/12/04 01:19:58;;;;;;;;;;;;;;;6.19;96.28;99157.25;4992704;28;887;-60
2021/12/04 01:22:26;;;;;;;;;;;;;;;6.15;96.74;99151.00;4992902;28;820;-60
2021/12/04 01:24:52;;;;;;;;;;;;;;;6.10;96.72;99132.94;4992466;28;891;-60
2021/12/04 01:27:18;;;;;;;;;;;;;;;6.04;96.84;99126.25;4992476;28;1902;-60
2021/12/04 01:29:44;;;;;;;;;;;;;;;6.05;96.63;99136.84;4992768;28;836;-60
2021/12/04 01:32:11;;;;;;;;;;;;;;;6.01;97.44;99127.03;4992664;28;899;-59
2021/12/04 01:34:38;;;;;;;;;;;;;;;6.03;97.39;99141.94;4992890;28;840;-61
2021/12/04 01:37:05;;;;;;;;;;;;;;;6.00;97.04;99106.28;4992382;28;919;-61
2021/12/04 01:39:31;;;;;;;;;;;;;;;5.95;96.85;99164.25;4992394;28;1241;-61
2021/12/04 01:41:58;;;;;;;;;;;;;;;5.93;97.73;99162.66;4992723;28;817;-63
2021/12/04 01:44:24;;;;;;;;;;;;;;;5.92;97.29;99160.31;4992655;28;824;-63
2021/12/04 01:46:55;;;;;;;;;;;;;;;5.86;96.94;99162.63;4992195;28;863;-62
2021/12/04 01:49:23;;;;;;;;;;;;;;;5.82;97.56;99145.38;4992252;28;1969;-62
2021/12/04 01:51:49;;;;;;;;;;;;;;;5.79;97.89;99154.38;4992204;28;895;-62
2021/12/04 01:54:16;;;;;;;;;;;;;;;5.79;97.27;99139.88;4992199;28;808;-62
2021/12/04 01:56:42;;;;;;;;;;;;;;;5.76;97.15;99135.97;4992141;28;813;-62
2021/12/04 01:59:09;;;;;;;;;;;;;;;5.76;97.39;99146.13;4990896;28;1205;-63
2021/12/04 02:01:35;;;;;;;;;;;;;;;5.69;97.18;99155.88;4990990;28;1300;-63
2021/12/04 02:04:02;;;;;;;;;;;;;;;5.63;96.97;99151.16;4992345;28;813;-63
2021/12/04 02:06:27;;;;;;;;;;;;;;;5.62;97.25;99164.09;4992417;28;846;-63
2021/12/04 02:08:54;;;;;;;;;;;;;;;5.63;97.05;99173.09;4991878;28;1882;-64
2021/12/04 02:11:20;;;;;;;;;;;;;;;5.60;96.95;99212.25;4992054;28;864;-65
2021/12/04 02:13:47;;;;;;;;;;;;;;;5.46;97.39;99180.88;4991988;28;840;-67
2021/12/04 02:16:16;;;;;;;;;;;;;;;5.39;97.82;99201.94;4991911;28;899;-65
2021/12/04 02:18:43;;;;;;;;;;;;;;;5.35;97.79;99206.63;4992315;28;812;-64
2021/12/04 02:21:10;;;;;;;;;;;;;;;5.28;97.02;99188.97;4992043;28;1241;-64
2021/12/04 02:23:37;;;;;;;;;;;;;;;5.25;97.82;99208.91;4992239;28;852;-63
2021/12/04 02:26:04;;;;;;;;;;;;;;;5.19;96.98;99195.97;4992127;28;1244;-62
2021/12/04 02:28:30;;;;;;;;;;;;;;;5.16;96.84;99189.25;4992406;28;1886;-62
2021/12/04 02:30:57;;;;;;;;;;;;;;;5.11;97.66;99171.22;4993897;28;899;-62
2021/12/04 02:33:24;;;;;;;;;;;;;;;5.08;97.78;99158.31;4995618;28;899;-62
2021/12/04 02:35:52;;;;;;;;;;;;;;;5.05;97.60;99153.56;4995481;28;816;-61
2021/12/04 02:38:25;;;;;;;;;;;;;;;5.00;97.59;99140.25;4995931;28;1216;-62
2021/12/04 02:40:54;;;;;;;;;;;;;;;4.99;97.23;99124.19;4995558;28;852;-61
2021/12/04 02:43:21;;;;;;;;;;;;;;;4.97;97.31;99123.78;4995398;28;863;-62
2021/12/04 02:45:47;;;;;;;;;;;;;;;4.95;97.00;99118.72;4995397;28;823;-60
2021/12/04 02:48:13;;;;;;;;;;;;;;;4.93;97.20;99132.00;4995465;28;1973;-60
2021/12/04 02:50:40;;;;;;;;;;;;;;;4.90;97.05;99102.63;4995278;28;901;-60
2021/12/04 02:53:07;;;;;;;;;;;;;;;4.88;97.29;99113.94;4995259;28;823;-60
2021/12/04 02:55:35;;;;;;;;;;;;;;;4.87;97.36;99112.38;4995293;28;942;-60
2021/12/04 02:58:02;;;;;;;;;;;;;;;4.90;97.18;99105.34;4995148;28;1035;-60
2021/12/04 03:00:28;;;;;;;;;;;;;;;4.95;97.07;99117.91;4995168;28;852;-60
2021/12/04 03:02:56;;;;;;;;;;;;;;;4.93;97.03;99109.28;4995110;28;893;-60
2021/12/04 03:05:27;;;;;;;;;;;;;;;4.93;96.67;99117.50;4994919;28;855;-59
2021/12/04 03:07:54;;;;;;;;;;;;;;;4.93;95.69;99104.59;4995241;28;1950;-60
2021/12/04 03:10:21;;;;;;;;;;;;;;;4.95;95.55;99094.06;4994861;28;892;-61
2021/12/04 03:12:48;;;;;;;;;;;;;;;4.99;95.67;99092.09;4994908;28;979;-60
2021/12/04 03:15:15;;;;;;;;;;;;;;;5.00;95.19;99099.16;4994814;28;883;-61
2021/12/04 03:17:42;;;;;;;;;;;;;;;4.97;95.82;99096.41;4994810;28;903;-62
2021/12/04 03:20:11;;;;;;;;;;;;;;;4.94;94.96;99103.44;4994758;28;883;-64
2021/12/04 03:22:40;;;;;;;;;;;;;;;4.87;95.42;99108.88;4995039;28;864;-63
2021/12/04 03:25:07;;;;;;;;;;;;;;;4.80;95.67;99101.41;4994725;28;1013;-62
2021/12/04 03:27:34;;;;;;;;;;;;;;;4.77;95.42;99106.84;4994503;28;1914;-61
2021/12/04 03:30:06;;;;;;;;;;;;;;;4.72;95.48;99093.50;4994578;28;801;-60
2021/12/04 03:43:15;;;;;;;;;;;;;;;4.47;95.78;99110.50;4994540;28;853;-61
2021/12/04 03:45:45;;;;;;;;;;;;;;;4.45;96.09;99118.31;4994320;28;837;-61
2021/12/04 03:48:28;;;;;;;;;;;;;;;4.43;96.17;99099.53;4994134;28;1976;-61
2021/12/04 03:50:55;;;;;;;;;;;;;;;4.37;96.20;99108.47;4992726;28;1316;-61
2021/12/04 03:53:22;;;;;;;;;;;;;;;4.35;96.26;99102.59;4994123;28;952;-61
2021/12/04 03:55:50;;;;;;;;;;;;;;;4.36;96.10;99112.38;4994077;28;838;-61
2021/12/04 03:58:17;;;;;;;;;;;;;;;4.36;96.15;99101.44;4994117;28;833;-61
2021/12/04 04:00:43;;;;;;;;;;;;;;;4.36;96.00;99102.22;4993970;28;801;-61
2021/12/04 04:03:09;;;;;;;;;;;;;;;4.33;95.81;99111.16;4993931;28;864;-61
2021/12/04 04:05:36;;;;;;;;;;;;;;;4.27;96.11;99097.06;4993827;28;804;-61
2021/12/04 04:08:03;;;;;;;;;;;;;;;4.25;95.60;99115.78;4993872;28;1949;-62
2021/12/04 04:10:30;;;;;;;;;;;;;;;4.20;95.51;99107.13;4993833;28;947;-62
2021/12/04 04:12:56;;;;;;;;;;;;;;;4.13;95.01;99107.84;4993824;28;832;-69
2021/12/04 04:15:24;;;;;;;;;;;;;;;4.07;95.47;99107.41;4993766;28;977;-67
2021/12/04 04:17:51;;;;;;;;;;;;;;;4.03;95.34;99114.00;4993697;28;837;-70
2021/12/04 04:20:20;;;;;;;;;;;;;;;3.99;95.21;99088.56;4993585;28;797;-66
2021/12/04 04:22:47;;;;;;;;;;;;;;;3.93;95.26;99104.53;4993674;28;800;-69
2021/12/04 04:25:15;;;;;;;;;;;;;;;3.84;95.43;99107.56;4993579;28;816;-67
2021/12/04 04:27:42;;;;;;;;;;;;;;;3.74;95.26;99096.53;4992074;28;1948;-63
2021/12/04 04:30:12;;;;;;;;;;;;;;;3.70;95.69;99095.69;4993703;28;879;-66
2021/12/04 04:32:40;;;;;;;;;;;;;;;3.68;96.01;99102.31;4993420;28;816;-64
2021/12/04 04:35:08;;;;;;;;;;;;;;;3.67;95.95;99083.56;4993536;28;812;-64
2021/12/04 04:38:03;;;;;;;;;;;;;;;3.65;95.33;99105.78;4993333;28;824;-64
2021/12/04 05:10:22;;;;;;;;;;;;;;;3.52;94.87;99123.59;4992730;28;646;-64
2021/12/04 05:12:58;;;;;;;;;;;;;;;3.52;95.50;99142.72;4992718;28;852;-64
2021/12/04 05:15:36;;;;;;;;;;;;;;;3.52;95.61;99125.53;4992699;28;867;-64
2021/12/04 05:18:11;;;;;;;;;;;;;;;3.53;95.22;99127.13;4992620;28;824;-66
2021/12/04 05:20:39;;;;;;;;;;;;;;;3.52;95.37;99123.59;4992545;28;938;-65
2021/12/04 05:23:08;;;;;;;;;;;;;;;3.50;95.05;99136.84;4992783;28;884;-64
2021/12/04 05:25:36;;;;;;;;;;;;;;;3.53;95.53;99154.44;4992528;28;883;-65
2021/12/04 05:28:06;;;;;;;;;;;;;;;3.51;95.51;99157.53;4992326;28;1957;-64
2021/12/04 05:30:33;;;;;;;;;;;;;;;3.51;95.30;99170.41;4992574;28;859;-64
2021/12/04 05:33:00;;;;;;;;;;;;;;;3.48;94.96;99129.00;4992739;28;895;-63
2021/12/04 05:35:27;;;;;;;;;;;;;;;3.48;95.56;99158.28;4992491;28;915;-64
2021/12/04 05:37:53;;;;;;;;;;;;;;;3.43;95.66;99151.16;4992481;28;1022;-64
2021/12/04 05:40:20;;;;;;;;;;;;;;;3.41;95.46;99172.59;4992413;28;1327;-63
2021/12/04 05:42:47;;;;;;;;;;;;;;;3.39;95.55;99160.47;4992551;28;850;-64
2021/12/04 05:45:25;;;;;;;;;;;;;;;3.38;95.77;99169.84;4992503;28;836;-64
2021/12/04 05:48:04;;;;;;;;;;;;;;;3.33;95.65;99157.31;4992120;28;1996;-63
2021/12/04 05:53:20;;;;;;;;;;;;;;;3.27;95.47;99172.44;4992111;28;721;-64
2021/12/04 05:55:56;;;;;;;;;;;;;;;3.26;95.97;99177.13;4992194;28;860;-63
2021/12/04 05:58:28;;;;;;;;;;;;;;;3.27;95.86;99180.63;4992151;28;895;-64
2021/12/04 06:00:56;;;;;;;;;;;;;;;3.28;96.52;99182.19;4992041;28;809;-64
2021/12/04 06:03:24;;;;;;;;;;;;;;;3.25;96.42;99175.53;4990676;28;1404;-64
2021/12/04 06:05:49;;;;;;;;;;;;;;;3.24;96.14;99182.16;4995908;28;848;-63
2021/12/04 06:08:15;;;;;;;;;;;;;;;3.25;96.48;99182.94;4996069;28;1914;-65
2021/12/04 06:10:42;;;;;;;;;;;;;;;3.24;96.09;99167.69;4995993;28;812;-62
2021/12/04 06:13:09;;;;;;;;;;;;;;;3.25;96.39;99196.59;4995966;28;864;-62
2021/12/04 06:15:35;;;;;;;;;;;;;;;3.21;95.89;99163.75;4995995;28;878;-63
2021/12/04 06:18:01;;;;;;;;;;;;;;;3.20;95.91;99181.31;4995923;28;804;-63
2021/12/04 06:23:13;;;;;;;;;;;;;;;3.22;95.57;99132.56;4996111;28;686;-63
2021/12/04 06:25:40;;;;;;;;;;;;;;;3.21;95.54;99147.38;4995850;28;863;-61
2021/12/04 06:28:07;;;;;;;;;;;;;;;3.19;95.89;99146.94;4995655;28;1894;-63
2021/12/04 06:30:38;;;;;;;;;;;;;;;3.18;96.02;99159.03;4995670;28;875;-64
2021/12/04 06:33:07;;;;;;;;;;;;;;;3.20;96.21;99156.75;4994272;28;1331;-64
2021/12/04 06:35:36;;;;;;;;;;;;;;;3.21;96.29;99132.94;4995933;28;828;-62
2021/12/04 06:38:02;;;;;;;;;;;;;;;3.18;95.62;99141.84;4995479;28;910;-63
2021/12/04 06:40:29;;;;;;;;;;;;;;;3.17;95.84;99138.34;4995418;28;1513;-62
2021/12/04 06:42:56;;;;;;;;;;;;;;;3.18;95.59;99150.03;4995616;28;902;-62
2021/12/04 06:45:23;;;;;;;;;;;;;;;3.18;95.51;99147.31;4994134;28;1269;-64
2021/12/04 06:47:57;;;;;;;;;;;;;;;3.17;96.06;99157.44;4995261;28;1982;-62
2021/12/04 06:50:33;;;;;;;;;;;;;;;3.16;95.68;99125.84;4995607;28;891;-61
2021/12/04 06:53:05;;;;;;;;;;;;;;;3.13;95.50;99125.78;4995353;28;840;-61
2021/12/04 06:55:38;;;;;;;;;;;;;;;3.13;95.71;99106.69;4995199;28;888;-63
2021/12/04 06:58:04;;;;;;;;;;;;;;;3.12;95.76;99096.94;4995228;28;900;-62
2021/12/04 07:00:31;;;;;;;;;;;;;;;3.10;95.21;99112.91;4995323;28;880;-62
2021/12/04 07:02:57;;;;;;;;;;;;;;;3.06;95.67;99121.03;4995064;28;860;-61
2021/12/04 07:05:24;;;;;;;;;;;;;;;3.08;95.39;99104.28;4995127;28;887;-61
2021/12/04 07:07:51;;;;;;;;;;;;;;;3.06;94.86;99121.81;4995120;28;1985;-62
2021/12/04 07:10:18;;;;;;;;;;;;;;;3.07;94.92;99136.25;4995072;28;863;-61
2021/12/04 07:12:44;;;;;;;;;;;;;;;3.05;94.94;99139.34;4995093;28;891;-61
2021/12/04 07:15:11;;;;;;;;;;;;;;;3.04;95.43;99105.00;4995004;28;908;-61
2021/12/04 07:17:38;;;;;;;;;;;;;;;3.03;94.90;99130.75;4994813;28;855;-61
2021/12/04 07:20:05;;;;;;;;;;;;;;;3.07;94.68;99158.09;4995313;28;789;-61
2021/12/04 07:22:32;;;;;;;;;;;;;;;3.05;94.88;99144.00;4994967;28;828;-61
2021/12/04 07:24:59;;;;;;;;;;;;;;;3.06;94.74;99148.34;4995052;28;828;-61
2021/12/04 07:27:28;;;;;;;;;;;;;;;3.02;95.40;99112.00;4994922;28;825;-61
2021/12/04 07:29:55;;;;;;;;;;;;;;;3.05;95.41;99135.81;4994670;28;1949;-61
2021/12/04 07:32:24;;;;;;;;;;;;;;;3.06;94.81;99148.34;4994494;28;820;-61
2021/12/04 07:34:53;;;;;;;;;;;;;;;3.03;95.54;99185.34;4994542;28;864;-65
2021/12/04 07:37:20;;;;;;;;;;;;;;;3.06;95.07;99161.97;4994681;28;852;-65
2021/12/04 07:39:45;;;;;;;;;;;;;;;3.06;94.61;99181.09;4994291;28;1443;-65
2021/12/04 07:42:12;;;;;;;;;;;;;;;3.02;95.88;99183.75;4994450;28;797;-63
2021/12/04 07:44:38;;;;;;;;;;;;;;;3.03;94.66;99159.97;4994291;28;883;-65
2021/12/04 07:47:05;;;;;;;;;;;;;;;3.01;94.88;99192.34;4994374;28;796;-65
2021/12/04 07:49:32;;;;;;;;;;;;;;;3.03;95.36;99184.53;4994154;28;1972;-65
2021/12/04 07:51:58;;;;;;;;;;;;;;;3.04;95.10;99197.84;4994197;28;850;-64
2021/12/04 07:54:25;;;;;;;;;;;;;;;3.05;95.38;99191.22;4994429;28;895;-65
2021/12/04 07:56:52;;;;;;;;;;;;;;;3.04;94.59;99176.00;4994431;28;844;-65
2021/12/04 07:59:19;;;;;;;;;;;;;;;3.04;94.72;99205.25;4994098;28;852;-64
2021/12/04 08:01:46;;;;;;;;;;;;;;;3.05;94.49;99206.81;4994203;28;996;-64
2021/12/04 08:04:12;;;;;;;;;;;;;;;3.03;94.90;99218.13;4994144;28;891;-64
2021/12/04 08:06:39;;;;;;;;;;;;;;;2.99;94.30;99194.66;4994105;28;816;-64
2021/12/04 08:09:05;;;;;;;;;;;;;;;2.97;94.09;99205.94;4994119;28;1887;-64
2021/12/04 08:11:33;;;;;;;;;;;;;;;2.95;94.69;99223.84;4992761;28;1208;-64
2021/12/04 08:14:00;;;;;;;;;;;;;;;2.96;94.67;99207.06;4994131;28;812;-64
2021/12/04 08:16:27;;;;;;;;;;;;;;;2.95;94.61;99221.88;4994047;28;910;-64
2021/12/04 08:18:53;;;;;;;;;;;;;;;2.96;95.25;99207.06;4993915;28;848;-64
2021/12/04 08:21:20;;;;;;;;;;;;;;;2.99;94.54;99221.94;4993931;28;984;-63
2021/12/04 08:23:48;;;;;;;;;;;;;;;2.97;95.02;99197.72;4993956;28;808;-63
2021/12/04 08:26:15;;;;;;;;;;;;;;;2.97;94.60;99192.28;4993762;28;895;-65
2021/12/04 08:28:42;;;;;;;;;;;;;;;2.98;94.65;99193.84;4992677;28;1972;-65
2021/12/04 08:31:09;;;;;;;;;;;;;;;2.97;94.50;99199.69;4993562;28;828;-65
2021/12/04 08:33:36;;;;;;;;;;;;;;;2.98;94.89;99223.88;4993535;28;880;-64
2021/12/04 08:36:04;;;;;;;;;;;;;;;2.96;95.22;99190.69;4993676;28;852;-65
2021/12/04 08:38:32;;;;;;;;;;;;;;;2.96;95.66;99182.50;4993123;28;1358;-66
2021/12/04 08:41:01;;;;;;;;;;;;;;;2.99;94.96;99195.44;4993308;28;872;-65
2021/12/04 08:43:28;;;;;;;;;;;;;;;2.98;95.56;99202.03;4993397;28;812;-64
2021/12/04 08:45:55;;;;;;;;;;;;;;;2.99;95.09;99191.91;4993205;28;907;-66
2021/12/04 08:48:22;;;;;;;;;;;;;;;2.98;94.78;99147.44;4993022;28;1973;-66
2021/12/04 08:50:49;;;;;;;;;;;;;;;2.98;94.89;99191.09;4993386;28;899;-66
2021/12/04 08:53:15;;;;;;;;;;;;;;;2.98;95.11;99177.47;4991711;28;1300;-66
2021/12/04 08:55:43;;;;;;;;;;;;;;;2.99;94.82;99137.31;4992981;28;829;-65
2021/12/04 08:58:10;;;;;;;;;;;;;;;2.98;94.73;99176.66;4992964;28;851;-64
2021/12/04 09:00:48;;;;;;;;;;;;;;;2.96;94.72;99157.16;4992726;28;939;-65
2021/12/04 09:03:14;;;;;;;;;;;;;;;2.94;94.41;99171.16;4992894;28;871;-65
2021/12/04 09:05:41;;;;;;;;;;;;;;;2.92;94.47;99151.63;4992858;28;904;-65
2021/12/04 09:08:08;;;;;;;;;;;;;;;2.97;94.66;99153.28;4992657;28;1882;-65
2021/12/04 09:10:36;;;;;;;;;;;;;;;2.91;94.84;99152.78;4992760;28;821;-66
2021/12/04 09:13:03;;;;;;;;;;;;;;;2.93;94.57;99155.94;4992730;28;867;-65
2021/12/04 09:15:31;;;;;;;;;;;;;;;2.92;94.30;99140.69;4992659;28;872;-64
2021/12/04 09:17:59;;;;;;;;;;;;;;;2.90;94.43;99153.16;4992934;28;849;-65
2021/12/04 09:20:28;;;;;;;;;;;;;;;2.91;94.54;99139.13;4992569;28;883;-64
2021/12/04 09:22:55;;;;;;;;;;;;;;;2.91;94.30;99165.66;4993273;28;792;-65
2021/12/04 09:25:23;;;;;;;;;;;;;;;2.91;94.46;99160.97;4993070;28;777;-64
2021/12/04 10:00:28;;;;;;;;;;;;;;;2.93;93.73;99138.78;4992324;28;682;-67
2021/12/04 10:11:39;;;;;;;;;;;;;;;2.89;94.22;99103.22;4992023;28;655;-66
2021/12/04 10:22:05;;;;;;;;;;;;;;;3.03;93.85;99125.28;4992172;28;757;-67
2021/12/04 10:32:55;;;;;;;;;;;;;;;3.16;92.82;99130.50;4992474;28;662;-65
2021/12/04 10:35:23;;;;;;;;;;;;;;;3.21;93.06;99131.00;4991904;28;1223;-66
2021/12/04 10:37:51;;;;;;;;;;;;;;;3.24;93.40;99135.72;4992440;28;897;-65
2021/12/04 10:40:20;;;;;;;;;;;;;;;3.31;93.38;99123.28;4991750;28;1268;-66
2021/12/04 10:43:05;;;;;;;;;;;;;;;3.41;92.66;99111.72;4991713;28;933;-65
2021/12/04 10:45:35;;;;;;;;;;;;;;;3.47;92.25;99121.97;4992508;28;792;-65
2021/12/04 10:48:08;;;;;;;;;;;;;;;3.50;92.36;99145.03;4991625;28;2013;-66
2021/12/04 10:53:11;;;;;;;;;;;;;;;3.46;92.52;99153.19;4995250;28;702;-65
2021/12/04 10:55:48;;;;;;;;;;;;;;;3.42;93.13;99148.84;4995262;28;819;-66
2021/12/04 10:58:33;;;;;;;;;;;;;;;3.39;92.55;99150.38;4995171;28;879;-64
2021/12/04 11:20:30;;;;;;;;;;;;;;;3.51;92.04;99149.34;4994842;28;691;-60
2021/12/04 11:23:09;;;;;;;;;;;;;;;3.43;92.65;99132.06;4994502;28;1006;-60
2021/12/04 11:39:36;;;;;;;;;;;;;;;3.43;93.15;99123.84;4994345;28;1334;-60
2021/12/04 11:44:55;;;;;;;;;;;;;;;3.36;92.74;99123.00;4994283;28;1243;-60
2021/12/04 11:47:22;;;;;;;;;;;;;;;3.33;93.34;99130.00;4994298;28;856;-60
2021/12/04 11:49:49;;;;;;;;;;;;;;;3.30;93.28;99127.97;4994303;28;1910;-61
2021/12/04 11:52:19;;;;;;;;;;;;;;;3.27;93.80;99120.53;4994216;28;878;-61
2021/12/04 11:55:08;;;;;;;;;;;;;;;3.26;93.19;99133.41;4994176;28;895;-60
2021/12/04 11:57:37;;;;;;;;;;;;;;;3.31;93.04;99118.66;4994117;28;884;-60
2021/12/04 12:00:08;;;;;;;;;;;;;;;3.30;93.60;99122.50;4994259;28;820;-60
2021/12/04 12:02:35;;;;;;;;;;;;;;;3.32;93.50;99124.88;4993889;28;883;-60
2021/12/04 12:05:05;;;;;;;;;;;;;;;3.32;93.83;99117.47;4993960;28;844;-60
2021/12/04 12:07:32;;;;;;;;;;;;;;;3.38;95.01;99115.22;4994171;28;828;-61
2021/12/04 12:10:04;;;;;;;;;;;;;;;3.47;95.18;99093.84;4993809;28;1946;-61
2021/12/04 12:12:36;;;;;;;;;;;;;;;3.58;95.12;99102.19;4993883;28;867;-61
2021/12/04 12:15:15;;;;;;;;;;;;;;;3.74;94.55;99100.03;4993791;28;907;-61
2021/12/04 12:17:43;;;;;;;;;;;;;;;3.86;92.58;99085.31;4993820;28;851;-61
2021/12/04 12:20:17;;;;;;;;;;;;;;;4.03;93.36;99098.41;4993764;28;860;-61
2021/12/04 12:22:50;;;;;;;;;;;;;;;4.14;92.34;99084.81;4993644;28;939;-61
2021/12/04 12:25:25;;;;;;;;;;;;;;;4.29;92.54;99104.91;4993918;28;887;-61
2021/12/04 12:33:28;;;;;;;;;;;;;;;4.62;91.23;99114.16;4993409;28;678;-61
2021/12/04 12:36:06;;;;;;;;;;;;;;;4.61;90.36;99120.78;4993456;28;820;-61
2021/12/04 12:38:52;;;;;;;;;;;;;;;4.61;89.53;99110.63;4991908;28;1287;-61
2021/12/04 12:41:43;;;;;;;;;;;;;;;4.19;88.91;99116.50;4993308;28;816;-61
2021/12/04 12:44:18;;;;;;;;;;;;;;;3.98;89.68;99106.16;4993463;28;1038;-60
2021/12/04 12:46:50;;;;;;;;;;;;;;;3.88;89.58;99124.00;4993183;28;853;-60
2021/12/04 12:49:39;;;;;;;;;;;;;;;3.86;89.65;99124.38;4993036;28;1910;-60
2021/12/04 12:52:07;;;;;;;;;;;;;;;4.05;90.24;99147.22;4993406;28;863;-60
2021/12/04 12:54:52;;;;;;;;;;;;;;;4.23;88.80;99156.41;4992987;28;904;-60
2021/12/04 12:57:22;;;;;;;;;;;;;;;4.21;89.62;99145.06;4992929;28;808;-59
2021/12/04 13:13:54;;;;;;;;;;;;;;;4.01;89.18;99199.16;4992147;28;675;-59
2021/12/04 13:16:31;;;;;;;;;;;;;;;3.95;89.14;99221.72;4992866;28;852;-59
2021/12/04 13:19:00;;;;;;;;;;;;;;;3.89;88.72;99213.06;4992687;28;848;-59
2021/12/04 13:21:27;;;;;;;;;;;;;;;3.83;89.34;99184.47;4992599;28;832;-59
2021/12/04 13:23:56;;;;;;;;;;;;;;;3.76;89.63;99212.53;4992447;28;908;-59
2021/12/04 13:26:27;;;;;;;;;;;;;;;3.75;89.60;99205.47;4992496;28;824;-58
2021/12/04 13:28:55;;;;;;;;;;;;;;;3.73;89.66;99223.41;4992431;28;1882;-58
2021/12/04 13:31:22;;;;;;;;;;;;;;;3.72;89.66;99230.81;4992455;28;857;-58
2021/12/04 13:33:52;;;;;;;;;;;;;;;3.75;89.79;99223.81;4992364;28;852;-58
2021/12/04 13:36:20;;;;;;;;;;;;;;;3.71;89.66;99229.22;4992740;28;805;-58
2021/12/04 13:38:47;;;;;;;;;;;;;;;3.75;90.06;99218.34;4992636;28;1382;-58
2021/12/04 13:41:14;;;;;;;;;;;;;;;3.73;90.17;99224.19;4992813;28;824;-58
2021/12/04 13:43:40;;;;;;;;;;;;;;;3.79;90.19;99239.09;4992489;28;915;-58
2021/12/04 13:46:07;;;;;;;;;;;;;;;3.80;89.76;99223.50;4992942;28;804;-58
2021/12/04 13:48:34;;;;;;;;;;;;;;;3.78;89.71;99244.97;4992781;28;1965;-58
2021/12/04 13:51:01;;;;;;;;;;;;;;;3.79;89.86;99255.50;4992941;28;761;-58
2021/12/04 13:53:30;;;;;;;;;;;;;;;3.82;89.72;99241.13;4992469;28;891;-58
2021/12/04 13:56:00;;;;;;;;;;;;;;;3.85;89.76;99239.56;4992144;28;943;-58
2021/12/04 13:58:27;;;;;;;;;;;;;;;3.85;89.46;99234.88;4992402;28;824;-58
2021/12/04 14:00:53;;;;;;;;;;;;;;;3.90;89.07;99258.38;4992145;28;812;-58
2021/12/04 14:03:21;;;;;;;;;;;;;;;3.91;88.55;99251.78;4990926;28;963;-58
2021/12/04 14:05:48;;;;;;;;;;;;;;;3.94;88.76;99244.75;4992070;28;888;-58
2021/12/04 14:08:15;;;;;;;;;;;;;;;3.97;88.89;99246.75;4992013;28;1882;-58
2021/12/04 14:10:46;;;;;;;;;;;;;;;3.96;88.36;99254.16;4991963;28;883;-58
2021/12/04 14:13:14;;;;;;;;;;;;;;;4.00;87.86;99254.22;4992069;28;804;-58
2021/12/04 14:15:44;;;;;;;;;;;;;;;4.00;88.10;99246.00;4992018;28;879;-58
2021/12/04 14:18:15;;;;;;;;;;;;;;;3.96;87.81;99251.44;4991834;28;872;-58
2021/12/04 14:20:44;;;;;;;;;;;;;;;3.95;87.43;99238.94;4992038;28;828;-58
2021/12/04 14:23:11;;;;;;;;;;;;;;;3.95;87.01;99241.66;4991869;28;828;-58
2021/12/04 14:25:43;;;;;;;;;;;;;;;3.99;87.24;99250.69;4993356;28;814;-58
2021/12/04 14:28:11;;;;;;;;;;;;;;;3.95;87.20;99219.78;4995732;28;1906;-58
2021/12/04 14:30:38;;;;;;;;;;;;;;;3.83;87.53;99215.34;4995701;28;856;-58
2021/12/04 14:33:09;;;;;;;;;;;;;;;3.70;88.38;99218.69;4995535;28;912;-58
2021/12/04 14:35:37;;;;;;;;;;;;;;;3.58;88.53;99225.16;4995618;28;947;-58
2021/12/04 14:38:06;;;;;;;;;;;;;;;3.47;89.46;99235.94;4995821;28;1008;-58
2021/12/04 14:40:34;;;;;;;;;;;;;;;3.35;89.97;99233.41;4995376;28;1331;-58
2021/12/04 14:43:04;;;;;;;;;;;;;;;3.28;90.10;99245.00;4995773;28;805;-58
2021/12/04 14:45:33;;;;;;;;;;;;;;;3.21;90.46;99225.78;4995485;28;848;-58
2021/12/04 14:48:05;;;;;;;;;;;;;;;3.15;91.58;99232.72;4995204;28;1971;-58
2021/12/04 14:50:33;;;;;;;;;;;;;;;3.11;91.32;99229.91;4994523;28;876;-58
2021/12/04 14:53:01;;;;;;;;;;;;;;;3.14;91.71;99236.63;4995514;28;919;-58
2021/12/04 14:55:32;;;;;;;;;;;;;;;3.10;91.96;99230.31;4995192;28;879;-58
2021/12/04 14:57:59;;;;;;;;;;;;;;;3.08;92.10;99227.16;4995316;28;876;-58
2021/12/04 15:00:28;;;;;;;;;;;;;;;3.03;92.07;99250.06;4995158;28;886;-58
2021/12/04 15:03:07;;;;;;;;;;;;;;;2.97;92.64;99230.50;4995121;28;935;-58
2021/12/04 15:05:41;;;;;;;;;;;;;;;2.94;92.65;99228.47;4995136;28;813;-58
2021/12/04 15:08:12;;;;;;;;;;;;;;;2.92;92.57;99230.78;4994874;28;1886;-58
2021/12/04 15:10:39;;;;;;;;;;;;;;;2.93;92.81;99232.38;4994943;28;1038;-58
2021/12/04 15:13:07;;;;;;;;;;;;;;;2.94;92.62;99233.94;4994952;28;902;-58
2021/12/04 15:15:36;;;;;;;;;;;;;;;2.92;92.31;99228.06;4994840;28;916;-58
2021/12/04 15:18:08;;;;;;;;;;;;;;;2.89;92.88;99214.38;4993553;28;1029;-58
2021/12/04 15:20:37;;;;;;;;;;;;;;;2.89;92.44;99228.00;4994765;28;919;-58
2021/12/04 15:23:08;;;;;;;;;;;;;;;2.87;93.09;99250.22;4994833;28;1286;-58
2021/12/04 15:25:36;;;;;;;;;;;;;;;2.90;92.03;99219.44;4994788;28;891;-58
2021/12/04 15:28:19;;;;;;;;;;;;;;;2.93;91.99;99237.84;4993426;28;1886;-58
2021/12/04 15:30:47;;;;;;;;;;;;;;;2.90;91.97;99251.41;4995347;28;820;-58
2021/12/04 15:33:25;;;;;;;;;;;;;;;2.89;92.50;99228.00;4994859;28;832;-58
